Time;durP1;ratioP1;P1;durP2;ratioP2;P2;SDS_P1;SDS_P2;PMS_P1;PMS_P2;Temp;Humidity;BMP_temperature;BMP_pressure;BME280_temperature;BME280_humidity;BME280_pressure;Samples;Min_cycle;Max_cycle;Signal;HPM_P1;HPM_P2
2024/02/16 00:00:26;;;;;;;4.57;4.17;;;12.10;99.90;;;;;;5092571;28;20723;-72
2024/02/16 00:02:52;;;;;;;3.87;3.57;;;12.10;99.90;;;;;;5092562;28;20200;-71
2024/02/16 00:05:18;;;;;;;5.57;3.63;;;12.10;99.90;;;;;;5092608;28;20619;-71
2024/02/16 00:07:43;;;;;;;4.83;3.77;;;12.10;99.90;;;;;;5073823;28;20268;-71
2024/02/16 00:10:10;;;;;;;4.70;4.03;;;12.10;99.90;;;;;;5103372;22;20307;-73
2024/02/16 00:12:37;;;;;;;4.80;4.00;;;12.10;99.90;;;;;;5090744;28;20176;-73
2024/02/16 00:15:03;;;;;;;4.20;3.90;;;12.10;99.90;;;;;;5109964;28;20172;-73
2024/02/16 00:17:28;;;;;;;4.20;3.80;;;12.20;91.10;;;;;;5111536;28;20176;-73
2024/02/16 00:19:57;;;;;;;3.97;3.67;;;12.10;57.20;;;;;;5101991;28;20270;-73
2024/02/16 00:22:23;;;;;;;5.43;3.80;;;12.20;51.80;;;;;;5091057;28;20169;-73
2024/02/16 00:24:49;;;;;;;6.20;4.13;;;12.20;35.10;;;;;;5091051;28;20265;-73
2024/02/16 00:27:15;;;;;;;5.07;3.50;;;12.20;14.10;;;;;;5090809;28;20275;-73
2024/02/16 00:29:41;;;;;;;4.10;3.80;;;12.30;7.10;;;;;;5090427;28;20708;-73
2024/02/16 00:32:07;;;;;;;5.33;4.00;;;12.30;1.60;;;;;;5090586;28;20287;-73
2024/02/16 00:34:34;;;;;;;6.90;4.00;;;12.30;1.00;;;;;;5082912;28;20729;-73
2024/02/16 00:37:00;;;;;;;4.17;3.77;;;12.40;1.00;;;;;;5070822;28;20658;-73
2024/02/16 00:39:25;;;;;;;4.47;3.77;;;12.40;1.00;;;;;;5073649;28;20170;-73
2024/02/16 00:41:51;;;;;;;4.57;3.90;;;12.40;1.00;;;;;;5074214;28;20166;-73
2024/02/16 00:44:17;;;;;;;5.00;3.80;;;12.50;1.00;;;;;;5074545;28;20178;-74
2024/02/16 00:46:43;;;;;;;4.13;3.67;;;12.50;1.00;;;;;;5074377;28;20181;-76
2024/02/16 00:49:10;;;;;;;4.97;3.70;;;12.50;1.00;;;;;;5093409;28;20189;-74
2024/02/16 00:51:36;;;;;;;4.10;3.70;;;12.60;1.00;;;;;;5093906;28;20558;-74
2024/02/16 00:54:03;;;;;;;3.47;3.23;;;12.60;1.00;;;;;;5094739;28;20166;-74
2024/02/16 00:56:29;;;;;;;4.83;3.60;;;12.60;1.00;;;;;;5095090;28;20173;-73
2024/02/16 00:58:55;;;;;;;4.93;3.93;;;12.60;1.00;;;;;;5094338;28;20672;-72
2024/02/16 01:01:22;;;;;;;5.13;4.03;;;12.60;1.00;;;;;;5094301;28;20300;-72
2024/02/16 01:03:48;;;;;;;4.23;3.43;;;12.60;1.00;;;;;;5092343;28;20660;-73
2024/02/16 01:06:14;;;;;;;3.97;3.67;;;12.60;1.00;;;;;;5081036;28;20178;-73
2024/02/16 01:08:40;;;;;;;5.17;3.67;;;12.60;1.00;;;;;;5073864;28;20180;-73
2024/02/16 01:11:05;;;;;;;4.10;3.40;;;12.60;1.00;;;;;;5055724;28;20221;-72
2024/02/16 01:13:32;;;;;;;6.07;3.80;;;12.60;1.00;;;;;;5073771;28;20175;-73
2024/02/16 01:15:58;;;;;;;4.87;3.70;;;12.60;1.00;;;;;;5064743;28;20177;-73
2024/02/16 01:18:23;;;;;;;4.60;3.50;;;12.70;1.00;;;;;;5094132;28;20169;-73
2024/02/16 01:20:49;;;;;;;3.70;3.40;;;12.70;1.00;;;;;;5094322;28;20193;-72
2024/02/16 01:23:15;;;;;;;4.07;3.67;;;12.70;1.00;;;;;;5094114;28;20480;-72
2024/02/16 01:25:40;;;;;;;4.10;3.70;;;12.70;1.00;;;;;;5094096;28;20260;-72
2024/02/16 01:28:06;;;;;;;5.50;3.73;;;12.70;1.00;;;;;;5093351;28;20181;-73
2024/02/16 01:30:32;;;;;;;6.50;3.77;;;12.70;1.00;;;;;;5085818;28;20281;-73
2024/02/16 01:32:57;;;;;;;3.90;3.50;;;12.70;1.00;;;;;;5073762;28;20201;-73
2024/02/16 01:35:23;;;;;;;5.53;3.60;;;12.70;1.00;;;;;;5074055;28;20166;-73
2024/02/16 01:37:48;;;;;;;6.37;3.53;;;12.70;1.00;;;;;;5073824;28;20536;-73
2024/02/16 01:40:16;;;;;;;4.30;3.80;;;12.70;1.00;;;;;;5073791;28;20197;-73
2024/02/16 01:42:43;;;;;;;3.93;3.60;;;12.60;1.00;;;;;;5073726;28;20237;-73
2024/02/16 01:45:09;;;;;;;6.83;3.50;;;12.60;1.00;;;;;;5092877;28;20370;-73
2024/02/16 01:47:36;;;;;;;6.07;3.67;;;12.60;1.00;;;;;;5093618;28;20233;-73
2024/02/16 01:50:03;;;;;;;4.63;3.60;;;12.60;1.00;;;;;;5092752;28;20645;-73
2024/02/16 01:52:30;;;;;;;6.73;4.40;;;12.60;1.00;;;;;;5093468;28;20232;-73
2024/02/16 01:54:57;;;;;;;3.90;3.60;;;12.70;1.00;;;;;;5075562;28;20169;-73
2024/02/16 01:57:23;;;;;;;4.97;3.90;;;12.70;1.00;;;;;;5093859;28;20180;-73
2024/02/16 01:59:49;;;;;;;7.13;3.63;;;12.70;1.00;;;;;;5074872;28;20210;-73
2024/02/16 02:02:15;;;;;;;5.53;3.70;;;12.70;1.00;;;;;;5073360;28;20265;-73
2024/02/16 02:04:41;;;;;;;3.60;3.30;;;12.70;1.00;;;;;;5073356;28;20256;-73
2024/02/16 02:07:14;;;;;;;4.67;3.77;;;12.70;1.00;;;;;;5078007;28;20229;-73
2024/02/16 02:09:40;;;;;;;5.93;3.70;;;12.70;1.00;;;;;;5093116;28;20212;-73
2024/02/16 02:12:06;;;;;;;4.00;3.40;;;12.70;1.00;;;;;;5082543;28;20405;-73
2024/02/16 02:14:32;;;;;;;4.37;3.73;;;12.70;1.00;;;;;;5074237;28;20178;-74
2024/02/16 02:16:57;;;;;;;4.23;3.70;;;12.80;1.00;;;;;;5072990;28;20181;-73
2024/02/16 02:19:23;;;;;;;4.40;4.00;;;12.80;1.00;;;;;;5072922;28;20174;-73
2024/02/16 02:21:50;;;;;;;7.87;4.43;;;12.80;1.00;;;;;;5072825;28;20263;-73
2024/02/16 02:24:16;;;;;;;4.77;4.40;;;12.80;1.00;;;;;;5072946;28;20182;-73
2024/02/16 02:26:41;;;;;;;4.63;4.23;;;12.80;1.00;;;;;;5072884;28;20557;-73
2024/02/16 02:29:07;;;;;;;4.37;3.97;;;12.80;1.00;;;;;;5089886;28;20215;-73
2024/02/16 02:31:33;;;;;;;4.97;4.57;;;12.80;1.00;;;;;;5092553;28;20562;-73
2024/02/16 02:33:58;;;;;;;4.77;3.90;;;12.80;1.00;;;;;;5093117;28;20174;-73
2024/02/16 02:36:24;;;;;;;4.70;4.30;;;12.80;1.00;;;;;;5092981;28;20169;-73
2024/02/16 02:38:50;;;;;;;6.37;4.83;;;12.80;1.00;;;;;;5074142;28;20710;-73
2024/02/16 02:41:19;;;;;;;4.87;4.50;;;12.80;1.00;;;;;;5054393;28;20240;-73
2024/02/16 02:43:45;;;;;;;5.97;4.60;;;12.80;1.00;;;;;;5072440;28;20174;-73
2024/02/16 02:46:17;;;;;;;5.97;4.53;;;12.70;1.00;;;;;;5072618;28;20481;-73
2024/02/16 02:48:46;;;;;;;4.00;3.60;;;12.70;1.00;;;;;;5072304;28;20185;-73
2024/02/16 02:51:12;;;;;;;4.10;3.73;;;12.70;1.00;;;;;;5072403;28;20264;-74
2024/02/16 02:53:38;;;;;;;3.87;3.40;;;12.70;1.00;;;;;;5090732;28;20646;-73
2024/02/16 02:56:04;;;;;;;4.47;3.97;;;12.70;1.00;;;;;;5074495;28;20553;-73
2024/02/16 02:58:30;;;;;;;5.47;3.90;;;12.70;1.00;;;;;;5092806;28;20295;-73
2024/02/16 03:00:56;;;;;;;9.40;3.67;;;12.60;1.00;;;;;;5092331;28;20291;-73
2024/02/16 03:03:22;;;;;;;3.90;3.40;;;12.50;1.00;;;;;;5092638;28;20174;-73
2024/02/16 03:05:48;;;;;;;4.23;3.83;;;12.40;99.90;;;;;;5090378;28;20181;-73
2024/02/16 03:08:14;;;;;;;4.70;3.60;;;12.30;99.90;;;;;;5092535;28;20178;-74
2024/02/16 03:10:40;;;;;;;3.87;3.57;;;12.10;1.00;;;;;;5092212;28;20218;-74
2024/02/16 03:13:08;;;;;;;4.43;3.63;;;12.00;99.90;;;;;;5092038;28;20174;-74
2024/02/16 03:15:35;;;;;;;7.83;3.67;;;11.80;1.00;;;;;;5091976;28;20166;-74
2024/02/16 03:18:01;;;;;;;4.40;4.00;;;11.70;1.00;;;;;;5092458;28;20169;-74
2024/02/16 03:20:27;;;;;;;4.40;4.10;;;11.60;1.00;;;;;;5091840;28;20205;-73
2024/02/16 03:22:53;;;;;;;5.33;4.57;;;11.60;1.00;;;;;;5092330;28;20199;-74
2024/02/16 03:25:18;;;;;;;4.40;4.00;;;11.50;99.90;;;;;;5092812;28;20184;-75
2024/02/16 03:27:45;;;;;;;6.90;3.87;;;11.40;1.00;;;;;;5091860;28;20283;-73
2024/02/16 03:30:11;;;;;;;5.10;4.20;;;11.40;1.00;;;;;;5092331;28;20193;-74
2024/02/16 03:32:37;;;;;;;7.40;4.47;;;11.40;1.00;;;;;;5092477;28;20193;-74
2024/02/16 03:35:04;;;;;;;6.33;4.10;;;11.40;1.00;;;;;;5072198;28;20192;-75
2024/02/16 03:37:30;;;;;;;4.53;4.20;;;11.40;99.90;;;;;;5071878;28;20209;-73
2024/02/16 03:39:56;;;;;;;6.40;4.47;;;11.40;99.90;;;;;;5071399;28;20189;-74
2024/02/16 03:42:21;;;;;;;6.90;4.33;;;11.50;99.90;;;;;;5071755;28;20549;-74
2024/02/16 03:44:47;;;;;;;4.77;4.37;;;11.50;99.90;;;;;;5073241;28;20170;-74
2024/02/16 03:47:12;;;;;;;5.80;4.13;;;11.50;99.90;;;;;;5059563;28;20174;-73
2024/02/16 03:49:39;;;;;;;6.70;4.13;;;11.60;99.90;;;;;;5078352;28;20205;-74
2024/02/16 03:52:05;;;;;;;4.73;4.20;;;11.60;99.90;;;;;;5071189;28;20197;-74
2024/02/16 03:54:30;;;;;;;5.67;4.20;;;11.60;99.90;;;;;;5073233;28;20686;-74
2024/02/16 03:56:57;;;;;;;6.73;4.23;;;11.60;99.90;;;;;;5074351;28;20654;-74
2024/02/16 03:59:23;;;;;;;10.73;4.83;;;11.60;99.90;;;;;;5075099;28;20578;-74
2024/02/16 04:01:49;;;;;;;4.93;4.40;;;11.70;99.90;;;;;;5089265;28;20216;-73
2024/02/16 04:04:15;;;;;;;4.63;4.23;;;11.70;99.90;;;;;;5073735;28;20272;-74
2024/02/16 04:06:41;;;;;;;4.63;4.30;;;11.80;99.90;;;;;;5091683;28;20235;-74
2024/02/16 04:09:07;;;;;;;11.00;5.00;;;11.80;99.90;;;;;;5091542;28;20174;-73
2024/02/16 04:11:34;;;;;;;5.40;4.57;;;11.90;99.90;;;;;;5091749;28;20624;-74
2024/02/16 04:13:59;;;;;;;5.03;4.07;;;12.00;99.90;;;;;;5094241;28;20223;-74
2024/02/16 04:16:25;;;;;;;4.50;4.10;;;12.10;99.90;;;;;;5078424;28;20170;-74
2024/02/16 04:18:51;;;;;;;5.57;4.00;;;12.20;99.90;;;;;;5075344;28;20166;-73
2024/02/16 04:21:17;;;;;;;6.53;4.50;;;12.30;99.90;;;;;;5075271;28;20190;-73
2024/02/16 04:23:44;;;;;;;5.03;3.97;;;12.30;99.90;;;;;;5075377;28;20527;-74
2024/02/16 04:26:10;;;;;;;5.47;4.30;;;12.40;99.90;;;;;;5075559;28;20174;-75
2024/02/16 04:28:36;;;;;;;6.40;4.27;;;12.40;99.90;;;;;;5093088;28;20173;-73
2024/02/16 04:31:01;;;;;;;4.20;3.90;;;12.40;99.90;;;;;;5095521;28;20546;-73
2024/02/16 04:33:27;;;;;;;5.10;4.30;;;12.40;99.90;;;;;;5096091;28;20170;-73
2024/02/16 04:35:53;;;;;;;4.70;4.30;;;12.40;99.90;;;;;;5095502;28;20252;-74
2024/02/16 04:38:19;;;;;;;6.80;4.27;;;12.40;99.90;;;;;;5095588;28;20169;-73
2024/02/16 04:40:45;;;;;;;6.37;4.70;;;12.40;99.90;;;;;;5095160;28;20292;-74
2024/02/16 04:43:11;;;;;;;6.40;5.00;;;12.40;99.90;;;;;;5078317;28;20265;-73
2024/02/16 04:45:36;;;;;;;6.17;4.50;;;12.30;99.90;;;;;;5075273;28;20575;-74
2024/02/16 04:48:05;;;;;;;5.97;4.53;;;12.40;99.90;;;;;;5074891;28;20198;-73
2024/02/16 04:50:35;;;;;;;5.77;4.57;;;12.30;99.90;;;;;;5075114;28;20252;-73
2024/02/16 04:53:03;;;;;;;8.17;4.80;;;12.30;99.90;;;;;;5074999;28;20188;-73
2024/02/16 04:55:30;;;;;;;6.13;4.10;;;12.20;99.90;;;;;;5079840;28;20177;-72
2024/02/16 04:57:56;;;;;;;6.00;4.50;;;12.20;99.90;;;;;;5095413;28;20249;-74
2024/02/16 05:00:22;;;;;;;4.60;4.20;;;12.20;99.90;;;;;;5095015;28;20221;-73
2024/02/16 05:02:48;;;;;;;5.83;4.60;;;12.20;99.90;;;;;;5094638;28;20204;-73
2024/02/16 05:05:15;;;;;;;6.20;4.73;;;12.20;99.90;;;;;;5094974;28;20710;-73
2024/02/16 05:07:42;;;;;;;9.00;5.13;;;12.20;99.90;;;;;;5076573;28;20208;-76
2024/02/16 05:10:10;;;;;;;6.03;4.40;;;12.20;99.90;;;;;;5091739;28;20260;-74
2024/02/16 05:12:37;;;;;;;5.23;4.77;;;12.20;99.90;;;;;;5074333;28;20225;-74
2024/02/16 05:15:03;;;;;;;6.00;4.93;;;12.20;99.90;;;;;;5074689;28;20162;-74
2024/02/16 05:17:29;;;;;;;4.90;4.50;;;12.20;99.90;;;;;;5074586;28;20198;-74
2024/02/16 05:19:54;;;;;;;5.13;4.63;;;12.20;99.90;;;;;;5073965;28;20230;-73
2024/02/16 05:22:21;;;;;;;6.90;4.60;;;12.10;99.90;;;;;;5056046;28;20188;-73
2024/02/16 05:24:47;;;;;;;4.93;4.53;;;12.10;99.90;;;;;;5094087;28;20583;-74
2024/02/16 05:27:13;;;;;;;5.20;4.60;;;12.10;99.90;;;;;;5094114;28;20225;-73
2024/02/16 05:29:39;;;;;;;6.73;4.87;;;12.00;99.90;;;;;;5094263;28;20200;-74
2024/02/16 05:32:05;;;;;;;7.30;4.83;;;12.00;99.90;;;;;;5093976;28;20331;-74
2024/02/16 05:34:37;;;;;;;6.57;5.03;;;12.00;99.90;;;;;;5094436;28;20177;-74
2024/02/16 05:37:04;;;;;;;6.00;4.70;;;11.90;99.90;;;;;;5094272;28;20548;-73
2024/02/16 05:39:31;;;;;;;8.67;5.23;;;11.90;99.90;;;;;;5075457;28;20263;-74
2024/02/16 05:41:57;;;;;;;5.43;4.80;;;11.80;99.90;;;;;;5074123;28;20155;-74
2024/02/16 05:44:24;;;;;;;5.20;4.67;;;11.80;99.90;;;;;;5074821;28;20202;-74
2024/02/16 05:46:49;;;;;;;6.10;5.03;;;11.80;99.90;;;;;;5074481;28;20236;-74
2024/02/16 05:49:16;;;;;;;9.83;5.57;;;11.80;99.90;;;;;;5074640;28;20642;-72
2024/02/16 05:51:42;;;;;;;5.80;5.30;;;11.80;99.90;;;;;;5084847;28;20209;-73
2024/02/16 05:54:08;;;;;;;6.10;5.50;;;11.80;99.90;;;;;;5094374;28;20230;-72
2024/02/16 05:56:39;;;;;;;5.33;4.83;;;11.80;99.90;;;;;;5093332;28;20178;-73
2024/02/16 05:59:05;;;;;;;5.13;4.63;;;11.80;99.90;;;;;;5056152;28;20265;-73
2024/02/16 06:01:31;;;;;;;6.50;5.03;;;11.80;99.90;;;;;;5073706;28;20643;-73
2024/02/16 06:03:56;;;;;;;5.77;4.90;;;11.80;99.90;;;;;;5074217;28;20258;-74
2024/02/16 06:06:22;;;;;;;5.73;5.30;;;11.90;99.90;;;;;;5074265;28;20173;-73
2024/02/16 06:08:47;;;;;;;8.30;4.87;;;11.90;99.90;;;;;;5073683;28;20174;-73
2024/02/16 06:11:13;;;;;;;7.10;4.93;;;11.90;99.90;;;;;;5212597;22;20218;-69
2024/02/16 06:13:39;;;;;;;5.83;5.13;;;12.00;99.90;;;;;;5093739;28;20196;-69
2024/02/16 06:16:08;;;;;;;9.37;4.93;;;12.00;99.90;;;;;;5092821;28;20162;-70
2024/02/16 06:18:34;;;;;;;6.63;5.30;;;12.00;99.90;;;;;;5093968;28;20172;-70
2024/02/16 06:21:00;;;;;;;7.10;4.77;;;12.10;99.90;;;;;;5101260;28;20197;-70
2024/02/16 06:23:25;;;;;;;5.97;4.93;;;12.10;99.90;;;;;;5092600;28;20177;-71
2024/02/16 06:25:51;;;;;;;5.90;4.77;;;12.10;99.90;;;;;;5072634;28;20243;-71
2024/02/16 06:28:17;;;;;;;9.77;5.10;;;12.20;99.90;;;;;;5072421;28;20249;-70
2024/02/16 06:30:42;;;;;;;7.13;4.33;;;12.20;99.90;;;;;;5072178;28;20273;-70
2024/02/16 06:33:08;;;;;;;5.60;4.67;;;12.30;99.90;;;;;;5072101;28;20174;-70
2024/02/16 06:35:33;;;;;;;7.23;4.70;;;12.30;99.90;;;;;;5073329;28;20207;-69
2024/02/16 06:37:59;;;;;;;5.50;5.00;;;12.30;99.90;;;;;;5073109;28;20182;-69
2024/02/16 06:40:26;;;;;;;5.17;4.30;;;12.40;99.90;;;;;;5071333;28;20798;-70
2024/02/16 06:42:52;;;;;;;6.87;4.37;;;12.50;99.90;;;;;;5071245;28;20661;-70
2024/02/16 06:45:17;;;;;;;4.97;4.50;;;12.50;99.90;;;;;;5072159;28;20170;-70
2024/02/16 06:47:43;;;;;;;4.83;4.20;;;12.50;99.90;;;;;;5072145;28;20170;-69
2024/02/16 06:50:09;;;;;;;4.40;4.00;;;12.50;99.90;;;;;;5071754;28;20198;-71
2024/02/16 06:52:34;;;;;;;5.30;4.00;;;12.50;99.90;;;;;;5089656;28;20208;-70
2024/02/16 06:55:00;;;;;;;5.07;4.50;;;12.60;99.90;;;;;;5092174;28;20209;-70
2024/02/16 06:57:26;;;;;;;4.40;4.00;;;12.60;99.90;;;;;;5079976;28;20174;-70
2024/02/16 06:59:53;;;;;;;5.10;4.60;;;12.70;99.90;;;;;;5089083;28;20201;-69
2024/02/16 07:02:18;;;;;;;6.63;4.50;;;12.70;99.90;;;;;;5091970;28;20184;-70
2024/02/16 07:04:45;;;;;;;5.43;4.53;;;12.70;99.90;;;;;;5091933;28;20169;-70
2024/02/16 07:07:11;;;;;;;6.87;4.50;;;12.70;99.90;;;;;;5091911;28;20166;-70
2024/02/16 07:09:39;;;;;;;4.90;4.20;;;12.70;99.90;;;;;;5091692;28;20719;-70
2024/02/16 07:12:06;;;;;;;4.27;3.87;;;12.70;99.90;;;;;;5065456;28;20341;-72
2024/02/16 07:14:32;;;;;;;5.53;4.43;;;12.70;99.90;;;;;;5072690;28;20190;-71
2024/02/16 07:16:58;;;;;;;4.60;4.17;;;12.70;99.90;;;;;;5071150;28;20249;-71
2024/02/16 07:19:24;;;;;;;5.73;4.30;;;12.70;99.90;;;;;;5071427;28;20220;-71
2024/02/16 07:21:50;;;;;;;5.30;4.10;;;12.70;99.90;;;;;;5070863;28;20197;-71
2024/02/16 07:24:16;;;;;;;5.20;4.70;;;12.80;99.90;;;;;;5072193;28;20638;-71
2024/02/16 07:26:42;;;;;;;5.23;4.70;;;12.80;99.90;;;;;;5053309;28;20182;-71
2024/02/16 07:29:08;;;;;;;4.53;4.13;;;12.80;99.90;;;;;;5069999;28;20209;-71
2024/02/16 07:31:34;;;;;;;8.40;4.00;;;12.80;99.90;;;;;;5070797;28;20698;-71
2024/02/16 07:34:03;;;;;;;4.40;3.93;;;12.80;99.90;;;;;;5070877;28;20178;-71
2024/02/16 07:36:29;;;;;;;5.73;4.30;;;12.80;99.90;;;;;;5071085;28;20407;-71
2024/02/16 07:38:55;;;;;;;5.80;4.23;;;12.90;99.90;;;;;;5073284;28;20170;-71
2024/02/16 07:41:20;;;;;;;6.47;4.20;;;13.00;99.90;;;;;;5090951;28;20570;-71
2024/02/16 07:43:46;;;;;;;6.13;4.80;;;13.00;99.90;;;;;;5091225;28;20714;-71
2024/02/16 07:46:12;;;;;;;6.73;4.50;;;13.00;99.90;;;;;;5091013;28;20216;-71
2024/02/16 07:48:38;;;;;;;5.00;4.50;;;13.10;99.90;;;;;;5090299;28;20169;-71
2024/02/16 07:51:04;;;;;;;5.97;4.57;;;13.10;99.90;;;;;;5089089;28;20205;-71
2024/02/16 07:53:30;;;;;;;5.30;4.20;;;13.10;99.90;;;;;;5090966;28;20658;-71
2024/02/16 07:55:56;;;;;;;6.43;4.70;;;13.20;99.90;;;;;;5090780;28;20184;-71
2024/02/16 07:58:22;;;;;;;5.97;4.27;;;13.30;99.90;;;;;;5091568;28;20592;-70
2024/02/16 08:00:48;;;;;;;5.13;4.37;;;13.30;99.90;;;;;;5072273;28;20225;-71
2024/02/16 08:03:13;;;;;;;5.37;4.37;;;13.40;99.90;;;;;;5070994;28;20658;-71
2024/02/16 08:05:39;;;;;;;8.70;5.00;;;13.30;99.90;;;;;;5071442;28;20273;-71
2024/02/16 08:08:05;;;;;;;4.60;4.10;;;13.30;99.90;;;;;;5070996;28;20233;-71
2024/02/16 08:10:30;;;;;;;7.17;4.30;;;13.40;99.90;;;;;;5071080;28;20217;-71
2024/02/16 08:12:58;;;;;;;5.90;4.60;;;13.40;99.90;;;;;;5075853;28;20546;-71
2024/02/16 08:15:25;;;;;;;4.40;4.00;;;13.40;99.90;;;;;;5091193;28;20165;-71
2024/02/16 08:17:51;;;;;;;4.50;4.07;;;13.50;99.90;;;;;;5088586;28;20162;-71
2024/02/16 08:20:17;;;;;;;4.53;4.13;;;13.60;99.90;;;;;;5070609;28;20232;-71
2024/02/16 08:22:42;;;;;;;7.73;4.67;;;13.50;99.90;;;;;;5070475;28;20257;-71
2024/02/16 08:25:08;;;;;;;6.33;4.30;;;13.60;99.90;;;;;;5070523;28;20205;-71
2024/02/16 08:27:34;;;;;;;5.47;4.40;;;13.60;99.90;;;;;;5070384;28;20642;-72
2024/02/16 08:30:01;;;;;;;7.80;4.57;;;13.60;99.90;;;;;;5070326;28;20200;-72
2024/02/16 08:32:27;;;;;;;5.20;4.70;;;13.70;99.90;;;;;;5071579;28;20204;-71
2024/02/16 08:34:55;;;;;;;6.50;4.40;;;13.80;99.90;;;;;;5070333;28;20174;-71
2024/02/16 08:37:21;;;;;;;5.53;4.50;;;13.80;99.90;;;;;;5070473;28;20253;-71
2024/02/16 08:39:47;;;;;;;8.07;4.60;;;13.90;99.90;;;;;;5070237;28;20170;-71
2024/02/16 08:42:13;;;;;;;6.80;4.40;;;14.00;99.90;;;;;;5069930;28;20197;-71
2024/02/16 08:44:40;;;;;;;6.03;4.77;;;14.10;99.90;;;;;;5070645;28;20198;-71
2024/02/16 08:47:07;;;;;;;4.47;4.03;;;14.20;99.90;;;;;;5071833;28;20198;-71
2024/02/16 08:49:33;;;;;;;4.63;4.20;;;14.30;99.90;;;;;;5070462;28;20658;-71
2024/02/16 08:51:59;;;;;;;7.67;4.20;;;14.40;99.90;;;;;;5071389;28;20255;-71
2024/02/16 08:54:25;;;;;;;5.60;4.20;;;14.40;99.90;;;;;;5090630;28;20589;-72
2024/02/16 08:56:51;;;;;;;5.73;4.83;;;14.40;99.90;;;;;;5090590;28;20161;-72
2024/02/16 08:59:17;;;;;;;4.80;4.23;;;14.30;99.90;;;;;;5092055;28;20226;-71
2024/02/16 09:01:43;;;;;;;4.80;4.30;;;14.40;99.90;;;;;;5088585;28;20662;-71
2024/02/16 09:04:09;;;;;;;5.93;4.87;;;14.40;99.90;;;;;;5094036;28;20172;-72
2024/02/16 09:06:34;;;;;;;5.27;4.47;;;14.40;99.90;;;;;;5076007;28;20230;-71
2024/02/16 09:09:01;;;;;;;5.13;4.40;;;14.40;99.90;;;;;;5093911;28;20174;-72
2024/02/16 09:11:27;;;;;;;6.07;4.53;;;14.40;99.90;;;;;;5094040;28;20304;-71
2024/02/16 09:13:53;;;;;;;5.13;4.40;;;14.50;99.90;;;;;;5091791;28;20169;-71
2024/02/16 09:16:19;;;;;;;7.37;4.53;;;14.50;99.90;;;;;;5073402;28;20182;-71
2024/02/16 09:18:45;;;;;;;6.57;4.60;;;14.60;99.90;;;;;;5073900;28;20174;-71
2024/02/16 09:21:11;;;;;;;6.40;4.90;;;14.60;99.90;;;;;;5074004;28;20998;-72
2024/02/16 09:23:37;;;;;;;7.87;4.47;;;14.60;99.90;;;;;;5073581;28;20255;-71
2024/02/16 09:26:03;;;;;;;6.37;4.43;;;14.60;99.90;;;;;;5073603;28;20170;-73
2024/02/16 09:28:29;;;;;;;4.43;4.00;;;14.60;99.90;;;;;;5073270;28;20178;-71
2024/02/16 09:30:58;;;;;;;5.30;4.80;;;14.60;99.90;;;;;;5075114;28;20201;-71
2024/02/16 09:33:24;;;;;;;4.73;4.23;;;14.70;99.90;;;;;;5093663;28;20170;-71
2024/02/16 09:35:50;;;;;;;5.80;4.57;;;14.70;99.90;;;;;;5093834;28;20231;-70
2024/02/16 09:38:16;;;;;;;5.47;4.77;;;14.70;99.90;;;;;;5093529;28;20169;-71
2024/02/16 09:40:42;;;;;;;6.73;4.70;;;14.80;99.90;;;;;;5093435;28;20201;-71
2024/02/16 09:43:08;;;;;;;11.10;4.80;;;14.80;99.90;;;;;;5092701;28;20544;-72
2024/02/16 09:45:34;;;;;;;5.70;4.30;;;14.80;99.90;;;;;;5093651;28;20165;-72
2024/02/16 09:48:01;;;;;;;7.23;4.60;;;14.90;99.90;;;;;;5093322;28;20205;-74
2024/02/16 09:50:27;;;;;;;6.20;4.17;;;14.90;99.90;;;;;;5091526;28;20194;-71
2024/02/16 09:52:54;;;;;;;6.97;4.67;;;15.00;99.90;;;;;;5075011;28;20706;-70
2024/02/16 09:55:20;;;;;;;5.20;4.37;;;15.00;99.90;;;;;;5093347;28;20170;-72
2024/02/16 09:57:47;;;;;;;7.47;4.23;;;15.00;99.90;;;;;;5081918;28;20178;-72
2024/02/16 10:00:13;;;;;;;5.87;4.20;;;15.00;99.90;;;;;;5073009;28;20662;-72
2024/02/16 10:02:43;;;;;;;5.10;4.60;;;14.90;99.90;;;;;;5072828;28;20554;-71
2024/02/16 10:05:15;;;;;;;7.67;4.67;;;15.00;99.90;;;;;;5055010;28;20268;-72
2024/02/16 10:07:41;;;;;;;6.90;4.70;;;15.00;99.90;;;;;;5072926;28;20170;-71
2024/02/16 10:10:19;;;;;;;4.53;4.10;;;14.90;99.90;;;;;;5071862;28;20596;-71
2024/02/16 10:12:45;;;;;;;6.43;4.50;;;15.00;99.90;;;;;;5085579;28;20201;-71
2024/02/16 10:15:11;;;;;;;5.27;4.43;;;15.10;99.90;;;;;;5093909;28;20158;-71
2024/02/16 10:17:36;;;;;;;4.63;4.13;;;15.20;99.90;;;;;;5093589;28;20677;-73
2024/02/16 10:20:06;;;;;;;5.23;4.10;;;15.30;99.90;;;;;;5092600;28;20720;-71
2024/02/16 10:22:32;;;;;;;5.33;4.40;;;15.50;99.90;;;;;;5092563;28;20541;-71
2024/02/16 10:25:12;;;;;;;11.40;4.97;;;15.60;99.90;;;;;;5088103;28;20178;-71
2024/02/16 10:27:39;;;;;;;5.47;4.87;;;15.60;99.90;;;;;;5072135;28;20480;-71
2024/02/16 10:30:12;;;;;;;5.87;5.00;;;15.60;99.90;;;;;;5072100;28;20193;-71
2024/02/16 10:32:38;;;;;;;7.13;5.87;;;15.50;99.90;;;;;;5072238;28;20202;-71
2024/02/16 10:35:08;;;;;;;6.30;4.87;;;15.40;99.90;;;;;;5072230;28;20176;-71
2024/02/16 10:37:34;;;;;;;8.33;4.30;;;15.30;99.90;;;;;;5072358;28;20536;-71
2024/02/16 10:40:01;;;;;;;6.83;4.83;;;15.10;99.90;;;;;;5071968;28;20198;-71
2024/02/16 10:42:27;;;;;;;6.67;5.80;;;15.10;99.90;;;;;;5071850;28;20178;-71
2024/02/16 10:44:53;;;;;;;7.10;5.23;;;14.90;99.90;;;;;;5072193;28;20536;-71
2024/02/16 10:47:19;;;;;;;7.00;5.03;;;14.90;99.90;;;;;;5072240;28;20174;-72
2024/02/16 10:49:45;;;;;;;7.53;4.97;;;14.90;99.90;;;;;;5072051;28;20220;-72
2024/02/16 10:52:14;;;;;;;5.97;5.00;;;14.90;99.90;;;;;;5071415;28;20464;-72
2024/02/16 10:54:42;;;;;;;5.60;4.97;;;15.00;99.90;;;;;;5090491;28;20654;-72
2024/02/16 10:57:09;;;;;;;8.43;5.60;;;15.20;99.90;;;;;;5092083;28;20162;-72
2024/02/16 10:59:43;;;;;;;7.10;4.83;;;15.30;99.90;;;;;;5092084;28;20170;-72
2024/02/16 11:02:10;;;;;;;7.43;5.13;;;15.30;99.90;;;;;;5091724;28;20794;-71
2024/02/16 11:04:40;;;;;;;10.20;6.17;;;15.30;99.90;;;;;;5092156;28;20665;-72
2024/02/16 11:07:15;;;;;;;8.73;5.57;;;15.40;99.90;;;;;;5091834;28;20680;-72
2024/02/16 11:09:41;;;;;;;5.23;4.57;;;15.40;99.90;;;;;;5071352;28;20178;-72
2024/02/16 11:12:15;;;;;;;6.80;5.40;;;15.40;99.90;;;;;;5071147;28;20206;-72
2024/02/16 11:14:44;;;;;;;5.90;4.90;;;15.50;99.90;;;;;;5071691;28;20166;-71
2024/02/16 11:17:12;;;;;;;7.57;4.77;;;15.50;99.90;;;;;;5071717;28;20166;-71
2024/02/16 11:19:40;;;;;;;5.20;4.70;;;15.60;99.90;;;;;;5091108;28;20180;-72
2024/02/16 11:22:10;;;;;;;8.83;5.07;;;15.60;99.90;;;;;;5089253;28;20208;-72
2024/02/16 11:24:37;;;;;;;7.33;4.47;;;15.60;99.90;;;;;;5091695;28;20519;-72
2024/02/16 11:27:05;;;;;;;7.40;4.63;;;15.60;99.90;;;;;;5091310;28;20166;-72
2024/02/16 11:29:35;;;;;;;8.13;5.27;;;15.60;99.90;;;;;;5091746;28;20181;-72
2024/02/16 11:32:05;;;;;;;7.83;5.73;;;15.60;99.90;;;;;;5091086;28;20198;-72
2024/02/16 11:34:31;;;;;;;9.23;5.30;;;15.70;99.90;;;;;;5091432;28;20191;-71
2024/02/16 11:36:58;;;;;;;8.30;5.73;;;15.80;99.90;;;;;;5076500;28;20557;-72
2024/02/16 11:39:25;;;;;;;7.03;5.23;;;15.90;99.90;;;;;;5052985;28;20176;-72
2024/02/16 11:42:11;;;;;;;8.43;4.70;;;16.00;99.90;;;;;;5070918;28;20269;-71
2024/02/16 11:44:42;;;;;;;7.50;4.77;;;16.10;99.90;;;;;;5071347;28;20178;-71
2024/02/16 11:47:17;;;;;;;6.47;4.50;;;16.10;99.90;;;;;;5071070;28;20170;-72
2024/02/16 11:49:42;;;;;;;6.30;5.10;;;16.10;99.90;;;;;;5080976;28;20214;-71
2024/02/16 11:52:08;;;;;;;10.80;5.13;;;16.00;99.90;;;;;;5090643;28;20197;-71
2024/02/16 11:54:35;;;;;;;10.33;5.10;;;16.10;99.90;;;;;;5073140;28;20222;-71
2024/02/16 11:57:00;;;;;;;6.03;4.57;;;16.10;99.90;;;;;;5091211;28;20189;-71
2024/02/16 11:59:26;;;;;;;8.30;4.80;;;16.10;99.90;;;;;;5091115;28;20282;-72
2024/02/16 12:01:57;;;;;;;7.07;5.27;;;16.10;99.90;;;;;;5090842;28;20289;-71
2024/02/16 12:04:30;;;;;;;6.70;4.30;;;16.00;99.90;;;;;;5081580;28;20241;-72
2024/02/16 12:07:00;;;;;;;7.27;4.70;;;15.90;99.90;;;;;;5070912;28;20173;-71
2024/02/16 12:09:26;;;;;;;8.70;4.83;;;15.90;99.90;;;;;;5071166;28;20502;-71
2024/02/16 12:14:22;;;;;;;10.07;5.30;;;15.70;99.90;;;;;;5089947;28;20274;-72
2024/02/16 12:16:51;;;;;;;5.57;4.10;;;15.70;99.90;;;;;;5092144;28;20215;-73
2024/02/16 12:19:21;;;;;;;6.87;4.93;;;15.70;99.90;;;;;;5092684;28;20179;-73
2024/02/16 12:21:51;;;;;;;7.97;4.60;;;15.70;99.90;;;;;;5091556;28;20189;-73
2024/02/16 12:24:18;;;;;;;7.20;5.60;;;15.60;99.90;;;;;;5091220;28;20539;-74
2024/02/16 12:26:43;;;;;;;8.83;5.30;;;15.50;99.90;;;;;;5091745;28;20649;-73
2024/02/16 12:29:12;;;;;;;11.60;6.47;;;15.20;99.90;;;;;;5090883;28;20200;-74
2024/02/16 12:31:41;;;;;;;9.10;5.80;;;15.00;99.90;;;;;;5090860;28;20218;-73
2024/02/16 12:34:07;;;;;;;8.27;6.03;;;14.70;99.90;;;;;;5091055;28;20196;-74
2024/02/16 12:36:38;;;;;;;9.73;6.30;;;14.50;99.90;;;;;;5095275;28;20542;-74
2024/02/16 12:39:04;;;;;;;11.77;6.20;;;14.30;99.90;;;;;;5095366;28;20276;-74
2024/02/16 12:41:33;;;;;;;9.10;7.23;;;14.10;99.90;;;;;;5094914;28;20231;-74
2024/02/16 12:43:59;;;;;;;9.10;6.90;;;14.00;99.90;;;;;;5095256;28;20170;-74
2024/02/16 12:46:25;;;;;;;9.77;6.63;;;13.90;99.90;;;;;;5094521;28;20181;-74